Stratham, New Hampshire
Current Conditions -  °F | °C
As of 1:58 PM on Friday 31 Oct 2014 (Local Time) from KPSM Reporting Station
Overcast Overcast  
Wind Chill: 51°   Ceiling: 6000
Heat Index: 51°   Visibility: 10mi
Dew Point: 34°   Wind: 7mph
Humidity: 52%   Direction: 80°E
Pressure: 30"   Gusts: NA
Location:  43.02°N, 70.91°W
Report Text: KPSM 311758Z 08006KT 10SM FEW035 BKN060 OVC250 11/01 A3000 RMK AO2A SLP163 T01050010 10108 20059 57014
Loading
Personal Weather Stations






























Interactive Weather Map
Tropical Storm Tracking
New forecast layout! Learn more

10-Day Weather Forecast

Advertisements
Track Severe Weather on mobile